createdAt,value
2019-02-20T00:00:32.889Z,99.99
2019-02-20T00:01:32.620Z,99.99
2019-02-20T00:02:32.856Z,99.99
2019-02-20T00:03:32.839Z,99.99
2019-02-20T00:04:32.549Z,99.99
2019-02-20T00:05:32.537Z,99.99
2019-02-20T00:06:32.518Z,99.99
2019-02-20T00:07:32.816Z,99.99
2019-02-20T00:08:32.736Z,99.99
2019-02-20T00:09:32.710Z,99.99
2019-02-20T00:10:32.439Z,99.99
2019-02-20T00:11:32.419Z,99.99
2019-02-20T00:12:32.658Z,99.99
2019-02-20T00:13:32.399Z,99.99
2019-02-20T00:14:32.616Z,99.99
2019-02-20T00:15:32.599Z,99.99
2019-02-20T00:16:32.573Z,99.99
2019-02-20T00:17:32.296Z,99.99
2019-02-20T00:18:32.285Z,99.99
2019-02-20T00:19:32.518Z,99.99
2019-02-20T00:20:32.495Z,99.99
2019-02-20T00:21:32.223Z,99.99
2019-02-20T00:22:39.956Z,99.99
2019-02-20T00:23:32.456Z,99.99
2019-02-20T00:24:32.421Z,99.99
2019-02-20T00:25:32.401Z,99.99
2019-02-20T00:26:32.382Z,99.99
2019-02-20T00:27:32.379Z,99.99
2019-02-20T00:28:32.088Z,99.99
2019-02-20T00:29:32.323Z,99.99
2019-02-20T00:30:32.082Z,99.99
2019-02-20T00:31:32.292Z,99.99
2019-02-20T00:32:32.263Z,99.99
2019-02-20T00:33:32.249Z,99.99
2019-02-20T00:34:32.226Z,99.99
2019-02-20T00:35:32.215Z,99.99
2019-02-20T00:36:32.187Z,99.99
2019-02-20T00:37:31.923Z,99.99
2019-02-20T00:38:32.177Z,99.99
2019-02-20T00:39:32.125Z,99.99
2019-02-20T00:40:32.108Z,99.99
2019-02-20T00:41:31.834Z,99.99
2019-02-20T00:42:32.067Z,99.99
2019-02-20T00:43:31.794Z,99.99
2019-02-20T00:44:31.775Z,99.99
2019-02-20T00:45:32.012Z,99.99
2019-02-20T00:46:31.994Z,99.99
2019-02-20T00:47:31.718Z,99.99
2019-02-20T00:48:31.702Z,99.99
2019-02-20T00:49:31.687Z,99.99
2019-02-20T00:50:31.907Z,99.99
2019-02-20T00:51:31.638Z,99.99
2019-02-20T00:52:31.879Z,99.99
2019-02-20T00:53:31.863Z,99.99
2019-02-20T00:54:31.575Z,99.99
2019-02-20T00:55:31.825Z,99.99
2019-02-20T00:56:31.800Z,99.99
2019-02-20T00:57:31.776Z,99.99
2019-02-20T00:58:31.503Z,99.99
2019-02-20T00:59:31.739Z,99.99
2019-02-20T01:00:31.717Z,99.99
2019-02-20T01:01:31.694Z,99.99
2019-02-20T01:02:31.676Z,99.99
2019-02-20T01:03:31.663Z,99.99
2019-02-20T01:04:31.633Z,99.99
2019-02-20T01:05:31.360Z,99.99
2019-02-20T01:06:31.402Z,99.99
2019-02-20T01:07:31.576Z,99.99
2019-02-20T01:08:31.606Z,99.99
2019-02-20T01:09:31.303Z,99.99
2019-02-20T01:10:31.515Z,99.99
2019-02-20T01:11:31.247Z,99.99
2019-02-20T01:12:31.474Z,99.99
2019-02-20T01:13:31.490Z,99.99
2019-02-20T01:14:31.181Z,99.99
2019-02-20T01:15:31.419Z,99.99
2019-02-20T01:16:31.423Z,99.99
2019-02-20T01:17:31.379Z,99.99
2019-02-20T01:18:31.407Z,99.99
2019-02-20T01:19:31.079Z,99.99
2019-02-20T01:20:31.065Z,99.99
2019-02-20T01:21:31.303Z,99.99
2019-02-20T01:22:31.290Z,99.99
2019-02-20T01:23:31.010Z,99.99
2019-02-20T01:24:31.302Z,99.99
2019-02-20T01:25:30.984Z,99.99
2019-02-20T01:26:30.952Z,99.99
2019-02-20T01:27:30.926Z,99.99
2019-02-20T01:28:30.904Z,99.99
2019-02-20T01:29:31.140Z,99.99
2019-02-20T01:30:31.179Z,99.99
2019-02-20T01:31:31.116Z,99.99
2019-02-20T01:32:30.864Z,99.99
2019-02-20T01:33:31.062Z,99.99
2019-02-20T01:34:31.045Z,99.99
2019-02-20T01:35:31.015Z,99.99
2019-02-20T01:36:31.003Z,99.99
2019-02-20T01:37:30.727Z,99.99
2019-02-20T01:38:30.969Z,99.99
2019-02-20T01:39:31.151Z,99.99
2019-02-20T01:40:30.666Z,99.99
2019-02-20T01:41:30.650Z,99.99
2019-02-20T01:42:30.892Z,99.99
2019-02-20T01:43:30.861Z,99.99
2019-02-20T01:44:30.593Z,99.99
2019-02-20T01:45:30.565Z,99.99
2019-02-20T01:46:30.562Z,99.99
2019-02-20T01:47:30.790Z,99.99
2019-02-20T01:48:30.781Z,99.99
2019-02-20T01:49:30.741Z,99.99
2019-02-20T01:50:30.727Z,99.99
2019-02-20T01:51:30.449Z,99.99
2019-02-20T01:52:30.684Z,99.99
2019-02-20T01:53:30.661Z,99.99
2019-02-20T01:54:30.650Z,99.99
2019-02-20T01:55:30.639Z,99.99
2019-02-20T01:56:30.624Z,99.99
2019-02-20T01:57:30.330Z,99.99
2019-02-20T01:58:30.572Z,99.99
2019-02-20T01:59:30.562Z,99.99
2019-02-20T02:00:30.531Z,99.99
2019-02-20T02:01:30.249Z,99.99
2019-02-20T02:02:30.251Z,99.99
2019-02-20T02:03:30.215Z,99.99
2019-02-20T02:04:30.486Z,99.99
2019-02-20T02:05:30.177Z,99.99
2019-02-20T02:06:30.417Z,99.99
2019-02-20T02:07:30.389Z,99.99
2019-02-20T02:08:30.368Z,99.99
2019-02-20T02:09:30.360Z,99.99
2019-02-20T02:10:30.077Z,99.99
2019-02-20T02:11:30.052Z,99.99
2019-02-20T02:12:30.036Z,99.99
2019-02-20T02:13:30.285Z,99.99
2019-02-20T02:14:30.250Z,99.99
2019-02-20T02:15:29.983Z,99.99
2019-02-20T02:16:30.218Z,99.99
2019-02-20T02:17:29.957Z,99.99
2019-02-20T02:18:30.180Z,99.99
2019-02-20T02:19:30.151Z,99.99
2019-02-20T02:20:30.151Z,99.99
2019-02-20T02:21:29.928Z,99.99
2019-02-20T02:22:30.093Z,99.99
2019-02-20T02:23:30.098Z,99.99
2019-02-20T02:24:30.056Z,99.99
2019-02-20T02:25:29.830Z,99.99
2019-02-20T02:26:29.773Z,99.99
2019-02-20T02:27:30.035Z,99.99
2019-02-20T02:28:29.979Z,99.99
2019-02-20T02:29:29.702Z,99.99
2019-02-20T02:30:30.045Z,99.99
2019-02-20T02:31:29.914Z,99.99
2019-02-20T02:32:29.650Z,99.99
2019-02-20T02:33:29.883Z,99.99
2019-02-20T02:34:29.605Z,99.99
2019-02-20T02:35:29.840Z,99.99
2019-02-20T02:36:29.559Z,99.99
2019-02-20T02:37:29.806Z,99.99
2019-02-20T02:38:29.539Z,99.99
2019-02-20T02:39:29.508Z,99.99
2019-02-20T02:40:29.767Z,99.99
2019-02-20T02:41:29.730Z,99.99
2019-02-20T02:42:29.703Z,99.99
2019-02-20T02:43:29.688Z,99.99
2019-02-20T02:44:29.412Z,99.99
2019-02-20T02:45:29.646Z,99.99
2019-02-20T02:46:29.624Z,99.99
2019-02-20T02:47:29.385Z,99.99
2019-02-20T02:48:29.584Z,99.99
2019-02-20T02:49:29.569Z,99.99
2019-02-20T02:50:29.733Z,99.99
2019-02-20T02:51:29.283Z,99.99
2019-02-20T02:52:29.257Z,99.99
2019-02-20T02:53:33.050Z,99.99
2019-02-20T02:54:29.599Z,99.99
2019-02-20T02:55:29.603Z,99.99
2019-02-20T02:56:29.173Z,99.99
2019-02-20T02:57:29.417Z,99.99
2019-02-20T02:58:29.385Z,99.99
2019-02-20T02:59:29.366Z,99.99
2019-02-20T03:00:29.145Z,99.99
2019-02-20T03:01:29.361Z,99.99
2019-02-20T03:02:29.064Z,99.99
2019-02-20T03:03:29.297Z,99.99
2019-02-20T03:04:29.281Z,99.99
2019-02-20T03:05:29.079Z,99.99
2019-02-20T03:06:29.274Z,99.99
2019-02-20T03:07:29.234Z,99.99
2019-02-20T03:08:29.196Z,99.99
2019-02-20T03:09:28.914Z,99.99
2019-02-20T03:10:29.155Z,99.99
2019-02-20T03:11:28.893Z,99.99
2019-02-20T03:12:29.117Z,99.99
2019-02-20T03:13:29.096Z,99.99
2019-02-20T03:14:29.079Z,99.99
2019-02-20T03:15:29.071Z,99.99
2019-02-20T03:16:29.096Z,99.99
2019-02-20T03:17:28.762Z,99.99
2019-02-20T03:18:28.738Z,99.99
2019-02-20T03:19:28.987Z,99.99
2019-02-20T03:20:28.964Z,99.99
2019-02-20T03:21:28.937Z,99.99
2019-02-20T03:22:28.676Z,99.99
2019-02-20T03:23:28.644Z,99.99
2019-02-20T03:24:28.904Z,99.99
2019-02-20T03:25:28.865Z,99.99
2019-02-20T03:26:28.844Z,99.99
2019-02-20T03:27:28.582Z,99.99
2019-02-20T03:28:28.564Z,99.99
2019-02-20T03:29:28.535Z,99.99
2019-02-20T03:30:28.777Z,99.99
2019-02-20T03:31:28.773Z,99.99
2019-02-20T03:32:28.735Z,99.99
2019-02-20T03:33:28.708Z,99.99
2019-02-20T03:34:28.699Z,99.99
2019-02-20T03:35:28.413Z,99.99
2019-02-20T03:36:28.648Z,99.99
2019-02-20T03:37:28.370Z,99.99
2019-02-20T03:38:32.925Z,99.99
2019-02-20T03:39:28.792Z,99.99
2019-02-20T03:40:28.568Z,99.99
2019-02-20T03:41:28.550Z,99.99
2019-02-20T03:42:28.525Z,99.99
2019-02-20T03:43:28.512Z,99.99
2019-02-20T03:44:28.509Z,99.99
2019-02-20T03:45:28.488Z,99.99
2019-02-20T03:46:28.454Z,99.99
2019-02-20T03:47:28.436Z,99.99
2019-02-20T03:48:28.187Z,99.99
2019-02-20T03:49:28.390Z,99.99
2019-02-20T03:50:28.434Z,99.99
2019-02-20T03:51:28.361Z,99.99
2019-02-20T03:52:28.334Z,99.99
2019-02-20T03:53:28.326Z,99.99
2019-02-20T03:54:28.294Z,99.99
2019-02-20T03:55:28.281Z,99.99
2019-02-20T03:56:28.263Z,99.99
2019-02-20T03:57:28.234Z,99.99
2019-02-20T03:58:28.219Z,99.99
2019-02-20T03:59:28.199Z,99.99
2019-02-20T04:00:28.178Z,99.99
2019-02-20T04:01:28.158Z,99.99
2019-02-20T04:02:27.879Z,99.99
2019-02-20T04:03:28.128Z,99.99
2019-02-20T04:04:28.107Z,99.99
2019-02-20T04:05:28.091Z,99.99
2019-02-20T04:06:28.056Z,99.99
2019-02-20T04:07:28.097Z,99.99
2019-02-20T04:08:28.051Z,99.99
2019-02-20T04:09:28.020Z,99.99
2019-02-20T04:10:27.733Z,99.99
2019-02-20T04:11:27.967Z,99.99
2019-02-20T04:12:27.696Z,99.99
2019-02-20T04:13:27.923Z,99.99
2019-02-20T04:14:27.899Z,99.99
2019-02-20T04:15:27.669Z,99.99
2019-02-20T04:16:27.865Z,99.99
2019-02-20T04:17:27.892Z,99.99
2019-02-20T04:18:27.826Z,99.99
2019-02-20T04:19:27.551Z,99.99
2019-02-20T04:20:27.784Z,99.99
2019-02-20T04:21:27.773Z,99.99
2019-02-20T04:22:27.746Z,99.99
2019-02-20T04:23:27.786Z,99.99
2019-02-20T04:24:27.719Z,99.99
2019-02-20T04:25:27.435Z,99.99
2019-02-20T04:26:27.678Z,99.99
2019-02-20T04:27:27.656Z,99.99
2019-02-20T04:28:27.639Z,99.99
2019-02-20T04:29:27.621Z,99.99
2019-02-20T04:30:27.335Z,99.99
2019-02-20T04:31:27.583Z,99.99
2019-02-20T04:32:27.546Z,99.99
2019-02-20T04:33:27.528Z,99.99
2019-02-20T04:34:27.516Z,99.99
2019-02-20T04:35:27.487Z,99.99
2019-02-20T04:36:27.490Z,99.99
2019-02-20T04:37:27.456Z,99.99
2019-02-20T04:38:27.453Z,99.99
2019-02-20T04:39:27.416Z,99.99
2019-02-20T04:40:27.393Z,99.99
2019-02-20T04:41:27.144Z,99.99
2019-02-20T04:42:27.354Z,99.99
2019-02-20T04:43:27.083Z,99.99
2019-02-20T04:44:27.331Z,99.99
2019-02-20T04:45:27.045Z,99.99
2019-02-20T04:46:27.278Z,99.99
2019-02-20T04:47:27.253Z,99.99
2019-02-20T04:48:27.236Z,99.99
2019-02-20T04:49:27.222Z,99.99
2019-02-20T04:50:27.212Z,99.99
2019-02-20T04:51:27.183Z,99.99
2019-02-20T04:52:27.166Z,99.99
2019-02-20T04:53:27.143Z,99.99
2019-02-20T04:54:27.131Z,99.99
2019-02-20T04:55:27.097Z,99.99
2019-02-20T04:56:27.097Z,99.99
2019-02-20T04:57:27.069Z,99.99
2019-02-20T04:58:27.059Z,99.99
2019-02-20T04:59:27.029Z,99.99
2019-02-20T05:00:26.748Z,99.99
2019-02-20T05:01:26.981Z,99.99
2019-02-20T05:02:26.707Z,99.99
2019-02-20T05:03:26.946Z,99.99
2019-02-20T05:04:26.928Z,99.99
2019-02-20T05:05:26.905Z,99.99
2019-02-20T05:06:26.892Z,99.99
2019-02-20T05:07:26.611Z,99.99
2019-02-20T05:08:26.848Z,99.99
2019-02-20T05:09:26.579Z,99.99
2019-02-20T05:10:26.806Z,99.99
2019-02-20T05:11:26.542Z,99.99
2019-02-20T05:12:26.788Z,99.99
2019-02-20T05:13:26.774Z,99.99
2019-02-20T05:14:26.738Z,99.99
2019-02-20T05:15:26.728Z,99.99
2019-02-20T05:16:26.697Z,99.99
2019-02-20T05:17:26.670Z,99.99
2019-02-20T05:18:26.810Z,99.99
2019-02-20T05:19:26.634Z,99.99
2019-02-20T05:20:26.633Z,99.99
2019-02-20T05:21:26.601Z,99.99
2019-02-20T05:22:26.578Z,99.99
2019-02-20T05:23:26.610Z,99.99
2019-02-20T05:24:27.741Z,99.99
2019-02-20T05:25:26.521Z,99.99
2019-02-20T05:26:26.495Z,99.99
2019-02-20T05:27:26.479Z,99.99
2019-02-20T05:28:26.464Z,99.99
2019-02-20T05:29:26.435Z,99.99
2019-02-20T05:30:26.438Z,99.99
2019-02-20T05:31:26.402Z,99.99
2019-02-20T05:32:26.380Z,99.99
2019-02-20T05:33:26.108Z,99.99
2019-02-20T05:34:26.362Z,99.99
2019-02-20T05:35:26.322Z,99.99
2019-02-20T05:36:26.302Z,99.99
2019-02-20T05:37:26.284Z,99.99
2019-02-20T05:38:26.260Z,99.99
2019-02-20T05:39:26.190Z,99.99
2019-02-20T05:40:26.225Z,99.99
2019-02-20T05:41:26.204Z,99.99
2019-02-20T05:42:25.933Z,99.99
2019-02-20T05:43:26.171Z,99.99
2019-02-20T05:44:25.901Z,99.99
2019-02-20T05:45:26.125Z,99.99
2019-02-20T05:46:26.111Z,99.99
2019-02-20T05:47:25.832Z,99.99
2019-02-20T05:48:26.078Z,99.99
2019-02-20T05:49:26.049Z,99.99
2019-02-20T05:50:26.041Z,99.99
2019-02-20T05:51:26.018Z,99.99
2019-02-20T05:52:26.015Z,99.99
2019-02-20T05:53:25.984Z,99.99
2019-02-20T05:54:34.010Z,99.99
2019-02-20T05:55:25.932Z,99.99
2019-02-20T05:56:25.917Z,99.99
2019-02-20T05:57:25.648Z,99.99
2019-02-20T05:58:25.629Z,99.99
2019-02-20T05:59:25.611Z,99.99
2019-02-20T06:00:25.581Z,99.99
2019-02-20T06:01:25.866Z,99.99
2019-02-20T06:02:25.817Z,99.99
2019-02-20T06:03:25.547Z,99.99
2019-02-20T06:04:25.791Z,99.99
2019-02-20T06:05:25.733Z,99.99
2019-02-20T06:06:25.457Z,99.99
2019-02-20T06:07:25.735Z,99.99
2019-02-20T06:08:25.678Z,99.99
2019-02-20T06:09:27.230Z,99.99
2019-02-20T06:10:25.705Z,99.99
2019-02-20T06:11:25.621Z,99.99
2019-02-20T06:12:25.597Z,99.99
2019-02-20T06:13:25.333Z,99.99
2019-02-20T06:14:25.563Z,99.99
2019-02-20T06:15:25.571Z,99.99
2019-02-20T06:16:25.524Z,99.99
2019-02-20T06:17:25.243Z,99.99
2019-02-20T06:18:25.488Z,99.99
2019-02-20T06:19:25.208Z,99.99
2019-02-20T06:20:25.466Z,99.99
2019-02-20T06:21:25.173Z,99.99
2019-02-20T06:22:25.401Z,99.99
2019-02-20T06:23:25.374Z,99.99
2019-02-20T06:24:25.357Z,99.99
2019-02-20T06:25:25.393Z,99.99
2019-02-20T06:26:25.373Z,99.99
2019-02-20T06:27:25.348Z,99.99
2019-02-20T06:28:25.030Z,99.99
2019-02-20T06:29:25.015Z,99.99
2019-02-20T06:30:25.241Z,99.99
2019-02-20T06:31:25.226Z,99.99
2019-02-20T06:32:26.377Z,99.99
2019-02-20T06:33:25.181Z,99.99
2019-02-20T06:34:24.917Z,99.99
2019-02-20T06:35:24.889Z,99.99
2019-02-20T06:36:25.115Z,99.99
2019-02-20T06:37:24.867Z,99.99
2019-02-20T06:38:25.086Z,99.99
2019-02-20T06:39:25.062Z,99.99
2019-02-20T06:40:25.039Z,99.99
2019-02-20T06:41:25.018Z,99.99
2019-02-20T06:42:25.003Z,99.99
2019-02-20T06:43:24.731Z,99.99
2019-02-20T06:44:24.708Z,99.99
2019-02-20T06:45:24.708Z,99.99
2019-02-20T06:46:24.920Z,99.99
2019-02-20T06:47:24.899Z,99.99
2019-02-20T06:48:24.882Z,99.99
2019-02-20T06:49:24.606Z,99.99
2019-02-20T06:50:24.854Z,99.99
2019-02-20T06:51:24.819Z,99.99
2019-02-20T06:52:24.560Z,99.99
2019-02-20T06:53:24.786Z,99.99
2019-02-20T06:54:24.755Z,99.99
2019-02-20T06:55:24.742Z,99.99
2019-02-20T06:56:24.719Z,99.99
2019-02-20T06:57:24.699Z,99.99
2019-02-20T06:58:24.429Z,99.99
2019-02-20T06:59:24.661Z,99.99
2019-02-20T07:00:24.399Z,99.99
2019-02-20T07:01:24.438Z,99.99
2019-02-20T07:02:24.607Z,99.99
2019-02-20T07:03:24.333Z,99.99
2019-02-20T07:04:24.331Z,99.99
2019-02-20T07:05:24.536Z,99.99
2019-02-20T07:06:24.522Z,99.99
2019-02-20T07:07:24.496Z,99.99
2019-02-20T07:08:24.476Z,99.99
2019-02-20T07:09:24.464Z,99.99
2019-02-20T07:10:24.446Z,99.99
2019-02-20T07:11:24.165Z,99.99
2019-02-20T07:12:24.399Z,99.99
2019-02-20T07:13:24.381Z,99.99
2019-02-20T07:14:24.107Z,99.99
2019-02-20T07:15:24.335Z,99.99
2019-02-20T07:16:24.070Z,99.99
2019-02-20T07:17:24.052Z,99.99
2019-02-20T07:18:24.284Z,99.99
2019-02-20T07:19:24.264Z,99.99
2019-02-20T07:20:24.327Z,99.99
2019-02-20T07:21:23.967Z,99.99
2019-02-20T07:22:24.199Z,99.99
2019-02-20T07:23:23.958Z,99.99
2019-02-20T07:24:24.181Z,99.99
2019-02-20T07:25:24.160Z,99.99
2019-02-20T07:26:23.867Z,99.99
2019-02-20T07:27:23.890Z,99.99
2019-02-20T07:28:23.836Z,99.99
2019-02-20T07:29:23.808Z,99.99
2019-02-20T07:30:24.042Z,99.99
2019-02-20T07:31:24.034Z,99.99
2019-02-20T07:32:24.003Z,99.99
2019-02-20T07:33:23.747Z,99.99
2019-02-20T07:34:23.723Z,99.99
2019-02-20T07:35:23.952Z,99.99
2019-02-20T07:36:23.676Z,99.99
2019-02-20T07:37:23.928Z,99.99
2019-02-20T07:38:23.909Z,99.99
2019-02-20T07:39:23.610Z,99.99
2019-02-20T07:40:23.848Z,99.99
2019-02-20T07:41:23.840Z,99.99
2019-02-20T07:42:23.813Z,99.99
2019-02-20T07:43:23.532Z,99.99
2019-02-20T07:44:23.544Z,99.99
2019-02-20T07:45:23.746Z,99.99
2019-02-20T07:46:23.475Z,99.99
2019-02-20T07:47:23.710Z,99.99
2019-02-20T07:48:23.695Z,99.99
2019-02-20T07:49:23.671Z,99.99
2019-02-20T07:50:23.448Z,99.99
2019-02-20T07:51:23.378Z,99.99
2019-02-20T07:52:23.611Z,99.99
2019-02-20T07:53:23.627Z,99.99
2019-02-20T07:54:23.569Z,99.99
2019-02-20T07:55:23.340Z,99.99
2019-02-20T07:56:24.101Z,99.99
2019-02-20T07:57:23.516Z,99.99
2019-02-20T07:58:23.245Z,99.99
2019-02-20T07:59:23.476Z,99.99
2019-02-20T08:00:23.565Z,99.99
2019-02-20T08:01:23.444Z,99.99
2019-02-20T08:02:23.163Z,99.99
2019-02-20T08:03:23.158Z,99.99
2019-02-20T08:04:23.385Z,99.99
2019-02-20T08:05:23.119Z,99.99
2019-02-20T08:06:23.345Z,99.99
2019-02-20T08:07:23.089Z,99.99
2019-02-20T08:08:23.328Z,99.99
2019-02-20T08:09:23.284Z,99.99
2019-02-20T08:10:23.009Z,99.99
2019-02-20T08:11:23.026Z,99.99
2019-02-20T08:12:22.974Z,99.99
2019-02-20T08:13:22.964Z,99.99
2019-02-20T08:14:23.208Z,99.99
2019-02-20T08:15:23.175Z,99.99
2019-02-20T08:16:22.901Z,99.99
2019-02-20T08:17:22.877Z,99.99
2019-02-20T08:18:23.119Z,99.99
2019-02-20T08:19:24.165Z,99.99
2019-02-20T08:20:23.090Z,99.99
2019-02-20T08:21:22.807Z,99.99
2019-02-20T08:22:22.785Z,99.99
2019-02-20T08:23:22.769Z,99.99
2019-02-20T08:24:22.754Z,99.99
2019-02-20T08:25:25.371Z,99.99
2019-02-20T08:26:22.968Z,99.99
2019-02-20T08:27:22.692Z,99.99
2019-02-20T08:28:22.697Z,99.99
2019-02-20T08:29:22.672Z,99.99
2019-02-20T08:30:22.640Z,99.99
2019-02-20T08:31:22.620Z,99.99
2019-02-20T08:32:22.618Z,99.99
2019-02-20T08:33:22.862Z,99.99
2019-02-20T08:34:22.576Z,99.99
2019-02-20T08:35:22.807Z,99.99
2019-02-20T08:36:22.794Z,99.99
2019-02-20T08:37:22.769Z,99.99
2019-02-20T08:38:22.497Z,99.99
2019-02-20T08:39:22.740Z,99.99
2019-02-20T08:40:22.749Z,99.99
2019-02-20T08:41:22.450Z,99.99
2019-02-20T08:42:22.684Z,99.99
2019-02-20T08:43:22.406Z,99.99
2019-02-20T08:44:22.391Z,99.99
2019-02-20T08:45:22.623Z,99.99
2019-02-20T08:46:22.609Z,99.99
2019-02-20T08:47:22.589Z,99.99
2019-02-20T08:48:22.336Z,99.99
2019-02-20T08:49:22.560Z,99.99
2019-02-20T08:50:22.542Z,99.99
2019-02-20T08:51:22.549Z,99.99
2019-02-20T08:52:22.263Z,99.99
2019-02-20T08:53:22.481Z,99.99
2019-02-20T08:54:22.476Z,99.99
2019-02-20T08:55:31.489Z,99.99
2019-02-20T08:56:22.432Z,99.99
2019-02-20T08:57:22.415Z,99.99
2019-02-20T08:58:22.144Z,99.99
2019-02-20T08:59:22.380Z,99.99
2019-02-20T09:00:23.523Z,99.99
2019-02-20T09:01:22.349Z,99.99
2019-02-20T09:02:22.332Z,99.99
2019-02-20T09:03:22.054Z,99.99
2019-02-20T09:04:22.053Z,99.99
2019-02-20T09:05:22.277Z,99.99
2019-02-20T09:06:22.271Z,99.99
2019-02-20T09:07:22.249Z,99.99
2019-02-20T09:08:22.233Z,99.99
2019-02-20T09:09:21.950Z,99.99
2019-02-20T09:10:22.195Z,99.99
2019-02-20T09:11:22.226Z,99.99
2019-02-20T09:12:22.150Z,99.99
2019-02-20T09:13:22.156Z,99.99
2019-02-20T09:14:21.861Z,99.99
2019-02-20T09:15:22.097Z,99.99
2019-02-20T09:16:22.082Z,99.99
2019-02-20T09:17:21.814Z,99.99
2019-02-20T09:18:22.051Z,99.99
2019-02-20T09:19:21.777Z,99.99
2019-02-20T09:20:21.760Z,99.99
2019-02-20T09:21:22.046Z,99.99
2019-02-20T09:22:21.984Z,99.99
2019-02-20T09:23:21.707Z,99.99
2019-02-20T09:24:21.969Z,99.99
2019-02-20T09:25:22.682Z,99.99
2019-02-20T09:26:21.664Z,99.99
2019-02-20T09:27:21.898Z,99.99
2019-02-20T09:28:21.622Z,99.99
2019-02-20T09:29:21.867Z,99.99
2019-02-20T09:30:30.734Z,99.99
2019-02-20T09:31:21.571Z,99.99
2019-02-20T09:32:21.564Z,99.99
2019-02-20T09:33:21.796Z,99.99
2019-02-20T09:34:21.789Z,99.99
2019-02-20T09:35:21.783Z,99.99
2019-02-20T09:36:21.761Z,99.99
2019-02-20T09:37:21.732Z,99.99
2019-02-20T09:38:21.712Z,99.99
2019-02-20T09:39:21.703Z,99.99
2019-02-20T09:40:21.621Z,99.99
2019-02-20T09:41:21.400Z,99.99
2019-02-20T09:42:21.644Z,99.99
2019-02-20T09:43:21.373Z,99.99
2019-02-20T09:44:21.610Z,99.99
2019-02-20T09:45:21.592Z,99.99
2019-02-20T09:46:21.327Z,99.99
2019-02-20T09:47:21.658Z,99.99
2019-02-20T09:48:21.546Z,99.99
2019-02-20T09:49:21.528Z,99.99
2019-02-20T09:50:21.516Z,99.99
2019-02-20T09:51:21.527Z,99.99
2019-02-20T09:52:21.477Z,99.99
2019-02-20T09:53:21.208Z,99.99
2019-02-20T09:54:21.460Z,99.99
2019-02-20T09:55:21.179Z,99.99
2019-02-20T09:56:21.446Z,99.99
2019-02-20T09:57:21.407Z,99.99
2019-02-20T09:58:21.387Z,99.99
2019-02-20T09:59:21.377Z,99.99
2019-02-20T10:00:21.382Z,99.99
2019-02-20T10:01:21.335Z,99.99
2019-02-20T10:02:21.329Z,99.99
2019-02-20T10:03:21.333Z,99.99
2019-02-20T10:04:21.041Z,99.99
2019-02-20T10:05:21.313Z,99.99
2019-02-20T10:06:21.264Z,99.99
2019-02-20T10:07:21.269Z,99.99
2019-02-20T10:08:21.227Z,99.99
2019-02-20T10:09:21.222Z,99.75
2019-02-20T10:10:20.941Z,99.65
2019-02-20T10:11:21.182Z,98.6
2019-02-20T10:12:20.915Z,98.41
2019-02-20T10:13:20.923Z,98.32
2019-02-20T10:14:20.876Z,98.41
2019-02-20T10:15:21.118Z,98.22
2019-02-20T10:16:21.110Z,97.94
2019-02-20T10:17:20.838Z,98.03
2019-02-20T10:18:20.823Z,97.27
2019-02-20T10:19:21.056Z,96.75
2019-02-20T10:20:21.043Z,96.84
2019-02-20T10:21:20.779Z,97.61
2019-02-20T10:22:21.009Z,95.56
2019-02-20T10:23:21.007Z,94.32
2019-02-20T10:24:20.730Z,94.51
2019-02-20T10:25:20.720Z,94.7
2019-02-20T10:26:20.953Z,94.51
2019-02-20T10:27:20.993Z,94.98
2019-02-20T10:28:20.934Z,95.41
2019-02-20T10:29:20.926Z,94.74
2019-02-20T10:30:20.897Z,95.22
2019-02-20T10:31:20.880Z,95.51
2019-02-20T10:32:20.873Z,95.79
2019-02-20T10:33:20.600Z,96.08
2019-02-20T10:34:20.862Z,95.41
2019-02-20T10:35:20.827Z,95.51
2019-02-20T10:36:20.813Z,95.98
2019-02-20T10:37:20.794Z,95.98
2019-02-20T10:38:20.787Z,97.32
2019-02-20T10:39:20.769Z,97.17
2019-02-20T10:40:20.751Z,97.89
2019-02-20T10:41:20.745Z,97.7
2019-02-20T10:42:20.730Z,96.94
2019-02-20T10:43:20.759Z,96.65
2019-02-20T10:44:20.693Z,97.03
2019-02-20T10:45:20.418Z,96.65
2019-02-20T10:46:20.665Z,96.65
2019-02-20T10:47:20.393Z,97.03
2019-02-20T10:48:20.681Z,97.32
2019-02-20T10:49:20.359Z,97.8
2019-02-20T10:50:20.609Z,97.41
2019-02-20T10:51:20.594Z,96.36
2019-02-20T10:52:20.380Z,96.46
2019-02-20T10:53:20.303Z,96.36
2019-02-20T10:54:20.287Z,96.56
2019-02-20T10:55:20.286Z,96.36
2019-02-20T10:56:20.282Z,96.27
2019-02-20T10:57:20.507Z,96.41
2019-02-20T10:58:20.250Z,97.22
2019-02-20T10:59:20.476Z,96.7
2019-02-20T11:00:26.306Z,95.56
2019-02-20T11:01:20.186Z,96.03
2019-02-20T11:02:20.439Z,96.7
2019-02-20T11:03:20.164Z,95.56
2019-02-20T11:04:20.153Z,96.32
2019-02-20T11:05:20.380Z,96.98
2019-02-20T11:06:20.113Z,96.41
2019-02-20T11:07:20.355Z,96.03
2019-02-20T11:08:20.340Z,95.56
2019-02-20T11:09:20.333Z,96.22
2019-02-20T11:10:20.317Z,95.84
2019-02-20T11:11:20.293Z,95.56
2019-02-20T11:12:20.023Z,95.17
2019-02-20T11:13:20.016Z,96.13
2019-02-20T11:14:20.253Z,95.94
2019-02-20T11:15:20.259Z,96.32
2019-02-20T11:16:20.228Z,97.27
2019-02-20T11:17:20.210Z,97.27
2019-02-20T11:18:20.195Z,97.46
2019-02-20T11:19:20.188Z,97.56
2019-02-20T11:20:20.171Z,96.32
2019-02-20T11:21:19.899Z,96.7
2019-02-20T11:22:20.622Z,96.22
2019-02-20T11:23:20.127Z,96.32
2019-02-20T11:24:20.394Z,96.7
2019-02-20T11:25:19.849Z,96.8
2019-02-20T11:26:21.150Z,96.89
2019-02-20T11:27:21.871Z,96.7
2019-02-20T11:28:26.741Z,97.08
2019-02-20T11:29:20.038Z,97.08
2019-02-20T11:30:20.023Z,97.08
2019-02-20T11:31:20.014Z,97.46
2019-02-20T11:32:20.003Z,97.08
2019-02-20T11:33:20.011Z,96.98
2019-02-20T11:34:19.885Z,96.7
2019-02-20T11:35:19.699Z,97.46
2019-02-20T11:36:19.682Z,96.7
2019-02-20T11:37:19.928Z,96.41
2019-02-20T11:38:19.908Z,96.08
2019-02-20T11:39:19.903Z,96.37
2019-02-20T11:40:20.098Z,96.46
2019-02-20T11:41:19.616Z,95.89
2019-02-20T11:42:19.874Z,96.56
2019-02-20T11:43:21.294Z,96.27
2019-02-20T11:44:23.385Z,95.79
2019-02-20T11:45:19.817Z,96.56
2019-02-20T11:46:19.548Z,95.61
2019-02-20T11:47:19.834Z,95.61
2019-02-20T11:48:19.769Z,95.03
2019-02-20T11:49:19.503Z,95.51
2019-02-20T11:50:19.489Z,94.93
2019-02-20T11:51:19.727Z,94.6
2019-02-20T11:52:20.915Z,95.03
2019-02-20T11:53:19.703Z,94.41
2019-02-20T11:54:19.434Z,93.46
2019-02-20T11:55:19.421Z,93.46
2019-02-20T11:56:26.362Z,94.17
2019-02-20T11:57:19.675Z,94.31
2019-02-20T11:58:19.380Z,93.07
2019-02-20T11:59:19.429Z,92.5
2019-02-20T12:00:19.614Z,93.41
2019-02-20T12:01:19.650Z,92.55
2019-02-20T12:02:19.588Z,92.74
2019-02-20T12:03:19.594Z,91.4
2019-02-20T12:04:19.563Z,91.97
2019-02-20T12:05:19.562Z,90.92
2019-02-20T12:06:19.537Z,91.88
2019-02-20T12:07:19.529Z,92.45
2019-02-20T12:08:19.517Z,91.97
2019-02-20T12:09:19.506Z,92.36
2019-02-20T12:10:19.552Z,93.26
2019-02-20T12:11:19.477Z,94.03
2019-02-20T12:12:19.472Z,93.88
2019-02-20T12:13:19.458Z,94.03
2019-02-20T12:14:19.195Z,94.12
2019-02-20T12:15:19.439Z,94.22
2019-02-20T12:16:19.420Z,94.41
2019-02-20T12:17:19.406Z,95.32
2019-02-20T12:18:20.085Z,96.46
2019-02-20T12:19:19.126Z,96.17
2019-02-20T12:20:19.107Z,96.08
2019-02-20T12:21:19.353Z,96.46
2019-02-20T12:22:19.340Z,96.84
2019-02-20T12:23:19.326Z,97.42
2019-02-20T12:24:19.327Z,96.75
2019-02-20T12:25:19.048Z,96.17
2019-02-20T12:26:19.295Z,95.79
2019-02-20T12:27:19.011Z,95.51
2019-02-20T12:28:19.255Z,95.51
2019-02-20T12:29:18.995Z,95.79
2019-02-20T12:30:19.229Z,96.08
2019-02-20T12:31:19.217Z,94.98
2019-02-20T12:32:19.202Z,94.6
2019-02-20T12:33:18.935Z,95.03
2019-02-20T12:34:19.177Z,95.32
2019-02-20T12:35:19.163Z,95.51
2019-02-20T12:36:19.153Z,95.41
2019-02-20T12:37:18.876Z,95.41
2019-02-20T12:38:19.122Z,95.03
2019-02-20T12:39:18.849Z,94.03
2019-02-20T12:40:19.095Z,93.26
2019-02-20T12:41:18.827Z,93.46
2019-02-20T12:42:19.092Z,92.69
2019-02-20T12:43:18.798Z,91.21
2019-02-20T12:44:19.048Z,90.49
2019-02-20T12:45:18.771Z,90.3
2019-02-20T12:46:19.013Z,89.53
2019-02-20T12:47:19.001Z,89.25
2019-02-20T12:48:18.998Z,88.96
2019-02-20T12:49:18.731Z,88.96
2019-02-20T12:50:18.715Z,88.39
2019-02-20T12:51:18.952Z,88.05
2019-02-20T12:52:18.942Z,87.48
2019-02-20T12:53:18.673Z,86.71